Stowe, VT (05662)

5:15 PM EST on January 30, 2015 (GMT -0500)
West Hill Stowe | Change Station
CLOSE
Current Station
Personal Weather Station
Location: Stowe, VT
Elevation: 833 ft
Nearby Weather Stations

Elev 833 ft 44.49 °N, 72.68 °W | Updated 9 minutes ago

Snow
Snow
14.6 °F
Feels Like 7 °F
N
5.0
Wind Variable Wind from South
Gusts 6.0 mph

Today
High -- | Low -- °F
--% Chance of Precip.
Yesterday
High -- | Low -- °F
Precip. -- in
7:11 AM 4:56 PM
Waxing Gibbous, 85% visible
Pressure 29.92 in
Visibility 1.5 miles
Clouds Overcast 2400 ft
Windchill 7 °F
Dew Point 10 °F
Humidity 82%
Rainfall 0.00 in
Snow Depth Not available.
UV 0 out of 12
Pollen .10 out of 12
Air Quality Not available.
Flu Activity Not available.
METAR KMVL 302154Z AUTO 01007KT 1 1/2SM -SN OVC024 M10/M13 A2992 RMK AO2 SLPNO P0000 T11001133 TSNO

More Conditions Fewer Conditions

Pressure 29.92 in
Visibility 1.5 miles
Clouds Overcast 2400 ft
Windchill 7 °F
Dew Point 10 °F
Humidity 82%
Rainfall 0.00 in
Snow Depth Not available.
UV 0 out of 12
Pollen .10 out of 12
Air Quality Not available.
Flu Activity Not available.
METAR KMVL 302154Z AUTO 01007KT 1 1/2SM -SN OVC024 M10/M13 A2992 RMK AO2 SLPNO P0000 T11001133 TSNO

More Conditions Fewer Conditions

10-Day Weather Forecast

Almanac

Astronomy

Jan. 30, 2015 Rise Set
Actual Time
Civil Twilight
Nautical Twilight
Astronomical Twilight
Moon
Length of Visible Light
Length of Day
Tomorrow will be .
, % of the Moon is Illuminated

Today's Extremes

State Highs State Lows

Community

WunderPhotos

Upload Photos

1,791,904 photos uploaded!

WunderBlogs® & News

Nearby

Air Quality

  Air Quality AQ Index Pollutant
Not available.

Snow Depth

Station Depth Elevation

Earthquake Activity

City Distance Mag. Time & Date
Minimum magnitude displayed is 2.5.

Coastal Water Temperatures

Place Temperature

Nearby Weather Stations